createdAt,value
2023-02-15T00:01:08.336Z,3.14
2023-02-15T00:03:53.278Z,3.21
2023-02-15T00:06:38.687Z,3.23
2023-02-15T00:09:23.958Z,3.19
2023-02-15T00:12:10.244Z,3.01
2023-02-15T00:14:55.428Z,2.90
2023-02-15T00:17:40.762Z,2.88
2023-02-15T00:20:25.809Z,3.13
2023-02-15T00:23:11.179Z,2.79
2023-02-15T00:26:08.048Z,2.72
2023-02-15T00:28:53.711Z,2.67
2023-02-15T00:31:39.321Z,2.79
2023-02-15T00:34:26.474Z,2.69
2023-02-15T00:37:11.512Z,2.65
2023-02-15T00:39:56.869Z,2.55
2023-02-15T00:42:42.214Z,2.77
2023-02-15T00:45:27.053Z,2.51
2023-02-15T00:48:12.698Z,2.54
2023-02-15T00:51:00.531Z,2.54
2023-02-15T00:53:45.865Z,2.53
2023-02-15T00:56:31.272Z,2.60
2023-02-15T00:59:16.478Z,2.83
2023-02-15T01:02:01.922Z,2.59
2023-02-15T01:04:46.953Z,2.44
2023-02-15T01:07:32.244Z,2.41
2023-02-15T01:10:17.606Z,2.47
2023-02-15T01:13:03.560Z,2.27
2023-02-15T01:15:56.068Z,2.18
2023-02-15T01:18:41.468Z,2.18
2023-02-15T01:21:27.233Z,1.96
2023-02-15T01:24:14.300Z,1.83
2023-02-15T01:26:59.513Z,1.89
2023-02-15T01:29:44.908Z,1.84
2023-02-15T01:32:29.782Z,1.86
2023-02-15T01:35:15.031Z,1.88
2023-02-15T01:38:00.541Z,2.03
2023-02-15T01:40:45.863Z,2.16
2023-02-15T01:43:42.360Z,2.23
2023-02-15T01:46:36.095Z,2.07
2023-02-15T01:49:27.741Z,1.91
2023-02-15T01:52:16.890Z,2.18
2023-02-15T01:55:02.469Z,2.15
2023-02-15T01:57:47.948Z,2.19
2023-02-15T02:00:34.964Z,2.27
2023-02-15T02:03:36.768Z,2.11
2023-02-15T02:06:22.729Z,2.05
2023-02-15T02:09:09.207Z,2.14
2023-02-15T02:11:54.827Z,2.02
2023-02-15T02:14:41.701Z,1.94
2023-02-15T02:17:54.809Z,1.99
2023-02-15T02:21:18.965Z,1.81
2023-02-15T02:24:34.001Z,1.74
2023-02-15T02:27:29.864Z,1.76
2023-02-15T02:30:23.675Z,1.55
2023-02-15T02:33:26.287Z,1.41
2023-02-15T02:36:39.308Z,1.38
2023-02-15T02:39:38.620Z,1.45
2023-02-15T02:42:44.336Z,1.38
2023-02-15T02:45:31.990Z,1.32
2023-02-15T02:48:23.067Z,1.36
2023-02-15T02:51:08.533Z,1.23
2023-02-15T02:53:57.417Z,1.27
2023-02-15T02:56:49.339Z,1.19
2023-02-15T02:59:42.333Z,1.21
2023-02-15T03:02:35.498Z,1.10
2023-02-15T03:05:25.794Z,1.14
2023-02-15T03:08:15.116Z,1.17
2023-02-15T03:11:02.579Z,1.11
2023-02-15T03:13:49.778Z,1.17
2023-02-15T03:16:35.643Z,1.32
2023-02-15T03:19:28.920Z,1.18
2023-02-15T03:22:25.819Z,1.10
2023-02-15T03:25:26.066Z,1.09
2023-02-15T03:28:16.351Z,1.20
2023-02-15T03:31:05.987Z,1.19
2023-02-15T03:33:58.891Z,1.07
2023-02-15T03:37:10.958Z,1.16
2023-02-15T03:40:13.210Z,1.29
2023-02-15T03:43:22.790Z,1.15
2023-02-15T03:46:34.497Z,1.14
2023-02-15T03:49:35.742Z,1.16
2023-02-15T03:52:24.265Z,1.29
2023-02-15T03:55:09.757Z,1.11
2023-02-15T03:57:55.036Z,1.11
2023-02-15T04:00:48.650Z,1.25
2023-02-15T04:04:17.293Z,0.99
2023-02-15T04:07:04.519Z,1.01
2023-02-15T04:09:50.115Z,1.12
2023-02-15T04:12:35.587Z,1.07
2023-02-15T04:15:20.912Z,1.10
2023-02-15T04:18:06.480Z,1.06
2023-02-15T04:20:51.569Z,0.96
2023-02-15T04:23:37.101Z,0.88
2023-02-15T04:26:22.387Z,0.88
2023-02-15T04:29:07.884Z,0.73
2023-02-15T04:31:54.878Z,0.69
2023-02-15T04:34:39.954Z,0.70
2023-02-15T04:37:25.320Z,0.63
2023-02-15T04:40:13.095Z,0.63
2023-02-15T04:42:58.393Z,0.69
2023-02-15T04:45:49.094Z,0.56
2023-02-15T04:48:34.331Z,0.53
2023-02-15T04:51:20.181Z,0.43
2023-02-15T04:54:05.679Z,0.44
2023-02-15T04:56:50.783Z,0.39
2023-02-15T04:59:36.299Z,0.43
2023-02-15T05:02:21.547Z,0.56
2023-02-15T05:05:07.080Z,0.58
2023-02-15T05:07:52.397Z,0.58
2023-02-15T05:10:37.678Z,0.60
2023-02-15T05:13:23.009Z,0.52
2023-02-15T05:16:08.005Z,0.39
2023-02-15T05:18:52.833Z,0.47
2023-02-15T05:21:38.546Z,0.46
2023-02-15T05:24:24.010Z,0.46
2023-02-15T05:27:12.137Z,0.47
2023-02-15T05:29:59.102Z,0.56
2023-02-15T05:32:44.460Z,0.19
2023-02-15T05:35:29.713Z,0.08
2023-02-15T05:38:15.230Z,0.13
2023-02-15T05:41:00.869Z,0.14
2023-02-15T05:43:46.266Z,0.16
2023-02-15T05:46:32.745Z,0.16
2023-02-15T05:49:18.004Z,0.01
2023-02-15T05:52:04.912Z,-0.04
2023-02-15T05:54:49.806Z,0.09
2023-02-15T05:57:34.746Z,-0.10
2023-02-15T06:00:19.800Z,-0.07
2023-02-15T06:03:05.123Z,0.03
2023-02-15T06:05:50.530Z,0.07
2023-02-15T06:08:37.127Z,0.09
2023-02-15T06:11:22.534Z,-0.01
2023-02-15T06:14:07.500Z,0.08
2023-02-15T06:16:53.023Z,0.10
2023-02-15T06:19:38.337Z,0.13
2023-02-15T06:22:23.386Z,0.14
2023-02-15T06:25:08.216Z,0.09
2023-02-15T06:27:53.131Z,0.06
2023-02-15T06:30:38.539Z,0.03
2023-02-15T06:33:24.208Z,0.07
2023-02-15T06:36:09.683Z,0.06
2023-02-15T06:38:55.720Z,0.05
2023-02-15T06:41:41.046Z,0.18
2023-02-15T06:44:26.607Z,0.18
2023-02-15T06:47:12.589Z,0.17
2023-02-15T06:49:58.007Z,0.20
2023-02-15T06:52:43.274Z,0.06
2023-02-15T06:55:28.814Z,0.04
2023-02-15T06:58:14.134Z,0.07
2023-02-15T07:01:00.158Z,0.05
2023-02-15T07:03:45.280Z,0.12
2023-02-15T07:06:34.087Z,0.10
2023-02-15T07:09:19.357Z,0.16
2023-02-15T07:12:05.234Z,0.15
2023-02-15T07:14:50.635Z,0.19
2023-02-15T07:17:37.512Z,0.32
2023-02-15T07:20:24.224Z,0.25
2023-02-15T07:23:09.480Z,0.21
2023-02-15T07:26:01.693Z,0.33
2023-02-15T07:28:46.809Z,0.35
2023-02-15T07:31:32.405Z,0.44
2023-02-15T07:34:18.010Z,0.53
2023-02-15T07:37:03.241Z,0.49
2023-02-15T07:39:48.084Z,0.50
2023-02-15T07:42:33.462Z,0.67
2023-02-15T07:45:18.764Z,0.67
2023-02-15T07:48:04.804Z,0.79
2023-02-15T07:50:50.149Z,0.95
2023-02-15T07:53:36.714Z,0.97
2023-02-15T07:56:21.927Z,1.05
2023-02-15T07:59:07.214Z,1.01
2023-02-15T08:01:52.702Z,1.14
2023-02-15T08:04:38.103Z,1.17
2023-02-15T08:07:22.943Z,1.20
2023-02-15T08:10:08.395Z,1.30
2023-02-15T08:12:53.449Z,1.46
2023-02-15T08:15:38.791Z,1.58
2023-02-15T08:18:23.707Z,1.68
2023-02-15T08:21:09.140Z,1.71
2023-02-15T08:23:55.913Z,1.70
2023-02-15T08:26:42.497Z,1.76
2023-02-15T08:29:29.377Z,1.67
2023-02-15T08:32:15.088Z,1.80
2023-02-15T08:35:00.456Z,1.95
2023-02-15T08:38:07.231Z,2.04
2023-02-15T08:40:52.618Z,2.15
2023-02-15T08:43:38.332Z,2.08
2023-02-15T08:46:25.748Z,2.18
2023-02-15T08:49:14.501Z,2.27
2023-02-15T08:51:59.983Z,2.44
2023-02-15T08:54:45.314Z,2.57
2023-02-15T08:57:30.821Z,2.64
2023-02-15T09:00:16.150Z,2.75
2023-02-15T09:03:01.638Z,2.85
2023-02-15T09:05:47.083Z,2.95
2023-02-15T09:08:32.043Z,3.08
2023-02-15T09:11:21.291Z,3.14
2023-02-15T09:14:15.452Z,3.30
2023-02-15T09:17:00.628Z,3.46
2023-02-15T09:19:45.848Z,3.62
2023-02-15T09:22:31.317Z,3.88
2023-02-15T09:25:16.571Z,4.00
2023-02-15T09:28:02.073Z,4.27
2023-02-15T09:30:47.600Z,4.57
2023-02-15T09:33:34.556Z,4.82
2023-02-15T09:36:21.416Z,4.91
2023-02-15T09:39:14.706Z,5.15
2023-02-15T09:42:18.846Z,5.30
2023-02-15T09:45:19.493Z,5.51
2023-02-15T09:48:17.300Z,5.45
2023-02-15T09:51:45.048Z,5.50
2023-02-15T09:55:09.844Z,5.72
2023-02-15T09:58:23.229Z,5.57
2023-02-15T10:01:14.574Z,5.67
2023-02-15T10:04:12.183Z,5.68
2023-02-15T10:07:15.982Z,6.26
2023-02-15T10:10:32.046Z,6.45
2023-02-15T10:13:48.223Z,6.38
2023-02-15T10:16:58.411Z,6.37
2023-02-15T10:20:00.990Z,6.32
2023-02-15T10:22:52.138Z,6.58
2023-02-15T10:25:52.837Z,7.01
2023-02-15T10:28:49.691Z,7.32
2023-02-15T10:31:50.400Z,7.19
2023-02-15T10:34:44.265Z,7.94
2023-02-15T10:37:44.721Z,8.27
2023-02-15T10:41:03.048Z,8.62
2023-02-15T10:44:02.833Z,8.53
2023-02-15T10:47:12.754Z,9.02
2023-02-15T10:50:22.716Z,9.46
2023-02-15T10:53:13.966Z,9.28
2023-02-15T10:56:21.631Z,9.73
2023-02-15T10:59:28.929Z,9.52
2023-02-15T11:02:26.503Z,10.05
2023-02-15T11:05:40.702Z,9.30
2023-02-15T11:08:30.561Z,9.34
2023-02-15T11:11:40.817Z,9.13
2023-02-15T11:14:46.383Z,9.69
2023-02-15T11:17:47.747Z,9.79
2023-02-15T11:20:57.878Z,9.33
2023-02-15T11:23:45.846Z,9.59
2023-02-15T11:26:37.390Z,9.93
2023-02-15T11:29:33.055Z,10.74
2023-02-15T11:32:27.051Z,11.64
2023-02-15T11:35:12.002Z,11.31
2023-02-15T11:38:16.092Z,11.16
2023-02-15T11:41:06.494Z,11.43
2023-02-15T11:44:00.340Z,11.69
2023-02-15T11:46:46.020Z,10.69
2023-02-15T11:49:33.764Z,10.41
2023-02-15T11:52:19.680Z,10.72
2023-02-15T11:55:15.075Z,11.37
2023-02-15T11:58:06.144Z,11.94
2023-02-15T12:01:17.526Z,12.38
2023-02-15T12:04:09.348Z,13.14
2023-02-15T12:07:10.218Z,12.42
2023-02-15T12:10:16.253Z,12.32
2023-02-15T12:13:16.853Z,12.51
2023-02-15T12:16:11.119Z,12.67
2023-02-15T12:18:59.634Z,13.03
2023-02-15T12:21:49.930Z,13.48
2023-02-15T12:24:48.461Z,13.39
2023-02-15T12:27:36.684Z,13.33
2023-02-15T12:30:31.141Z,12.69
2023-02-15T12:33:24.635Z,12.23
2023-02-15T12:36:16.207Z,11.74
2023-02-15T12:39:08.651Z,12.32
2023-02-15T12:41:57.056Z,13.41
2023-02-15T12:44:56.869Z,13.45
2023-02-15T12:47:42.388Z,12.88
2023-02-15T12:50:27.345Z,13.28
2023-02-15T12:53:30.930Z,13.45
2023-02-15T12:56:27.571Z,13.72
2023-02-15T12:59:15.129Z,14.69
2023-02-15T13:02:13.134Z,14.54
2023-02-15T13:05:08.956Z,14.88
2023-02-15T13:08:00.533Z,14.64
2023-02-15T13:11:08.051Z,14.54
2023-02-15T13:13:59.581Z,15.00
2023-02-15T13:16:46.954Z,15.09
2023-02-15T13:19:37.800Z,14.08
2023-02-15T13:22:30.487Z,14.00
2023-02-15T13:25:23.967Z,14.91
2023-02-15T13:28:15.690Z,15.22
2023-02-15T13:31:01.161Z,14.88
2023-02-15T13:34:02.669Z,15.53
2023-02-15T13:37:03.060Z,15.89
2023-02-15T13:39:50.888Z,15.25
2023-02-15T13:42:57.477Z,15.45
2023-02-15T13:45:55.948Z,15.65
2023-02-15T13:48:53.034Z,16.57
2023-02-15T13:51:53.160Z,17.07
2023-02-15T13:55:16.751Z,16.34
2023-02-15T13:58:20.622Z,15.33
2023-02-15T14:01:17.935Z,14.81
2023-02-15T14:04:24.670Z,15.04
2023-02-15T14:07:25.195Z,15.76
2023-02-15T14:10:21.920Z,15.42
2023-02-15T14:13:41.500Z,15.85
2023-02-15T14:17:06.022Z,16.03
2023-02-15T14:19:58.196Z,15.82
2023-02-15T14:22:49.928Z,14.95
2023-02-15T14:25:51.946Z,15.28
2023-02-15T14:28:49.232Z,14.78
2023-02-15T14:31:45.464Z,15.10
2023-02-15T14:35:02.631Z,15.80
2023-02-15T14:38:10.728Z,15.50
2023-02-15T14:41:01.095Z,15.94
2023-02-15T14:44:29.382Z,15.25
2023-02-15T14:47:23.845Z,15.47
2023-02-15T14:50:31.061Z,14.44
2023-02-15T14:53:17.082Z,15.10
2023-02-15T14:56:11.570Z,15.14
2023-02-15T14:59:00.269Z,15.64
2023-02-15T15:01:56.594Z,15.23
2023-02-15T15:05:03.286Z,14.96
2023-02-15T15:07:52.964Z,15.28
2023-02-15T15:10:44.584Z,15.05
2023-02-15T15:13:32.941Z,14.39
2023-02-15T15:16:30.854Z,14.33
2023-02-15T15:19:51.905Z,15.02
2023-02-15T15:22:37.942Z,15.08
2023-02-15T15:26:12.406Z,15.04
2023-02-15T15:29:00.291Z,15.06
2023-02-15T15:31:52.392Z,14.50
2023-02-15T15:35:01.728Z,14.20
2023-02-15T15:38:25.582Z,13.86
2023-02-15T15:41:40.937Z,13.36
2023-02-15T15:45:05.494Z,12.84
2023-02-15T15:48:07.705Z,12.31
2023-02-15T15:50:54.441Z,12.43
2023-02-15T15:53:44.785Z,12.45
2023-02-15T15:56:34.385Z,12.44
2023-02-15T15:59:25.881Z,12.15
2023-02-15T16:02:17.533Z,12.02
2023-02-15T16:05:09.965Z,11.87
2023-02-15T16:07:55.192Z,11.76
2023-02-15T16:10:41.317Z,11.71
2023-02-15T16:13:27.491Z,11.61
2023-02-15T16:16:20.256Z,11.57
2023-02-15T16:19:05.703Z,11.62
2023-02-15T16:21:51.188Z,11.50
2023-02-15T16:25:11.827Z,11.09
2023-02-15T16:27:57.082Z,11.16
2023-02-15T16:30:42.351Z,11.40
2023-02-15T16:33:36.938Z,11.46
2023-02-15T16:36:30.004Z,11.27
2023-02-15T16:39:20.978Z,11.00
2023-02-15T16:42:06.547Z,10.59
2023-02-15T16:45:14.802Z,10.65
2023-02-15T16:48:05.606Z,10.88
2023-02-15T16:50:55.674Z,10.58
2023-02-15T16:53:40.714Z,10.43
2023-02-15T16:56:28.817Z,10.34
2023-02-15T16:59:35.072Z,10.32
2023-02-15T17:02:49.437Z,9.90
2023-02-15T17:05:53.640Z,9.81
2023-02-15T17:08:45.727Z,9.79
2023-02-15T17:11:41.904Z,9.85
2023-02-15T17:14:32.301Z,9.93
2023-02-15T17:17:17.337Z,9.60
2023-02-15T17:20:03.130Z,9.61
2023-02-15T17:22:48.283Z,9.64
2023-02-15T17:25:39.791Z,9.60
2023-02-15T17:28:28.755Z,9.46
2023-02-15T17:31:16.282Z,9.47
2023-02-15T17:34:02.627Z,9.43
2023-02-15T17:36:58.894Z,9.38
2023-02-15T17:39:43.903Z,9.36
2023-02-15T17:42:29.284Z,9.36
2023-02-15T17:45:15.575Z,9.07
2023-02-15T17:48:04.476Z,8.80
2023-02-15T17:50:49.974Z,8.96
2023-02-15T17:53:35.706Z,8.79
2023-02-15T17:56:20.888Z,8.70
2023-02-15T17:59:06.405Z,8.67
2023-02-15T18:01:51.577Z,8.73
2023-02-15T18:04:37.520Z,8.61
2023-02-15T18:07:23.353Z,8.47
2023-02-15T18:10:18.508Z,8.29
2023-02-15T18:13:03.978Z,8.22
2023-02-15T18:15:48.963Z,8.23
2023-02-15T18:18:34.133Z,8.11
2023-02-15T18:21:19.340Z,8.10
2023-02-15T18:24:04.164Z,8.10
2023-02-15T18:26:50.499Z,8.20
2023-02-15T18:29:35.831Z,8.02
2023-02-15T18:32:35.364Z,7.95
2023-02-15T18:35:22.854Z,7.93
2023-02-15T18:38:09.765Z,7.86
2023-02-15T18:40:55.007Z,7.64
2023-02-15T18:43:40.005Z,7.67
2023-02-15T18:46:25.399Z,7.40
2023-02-15T18:49:10.845Z,7.41
2023-02-15T18:51:55.902Z,7.43
2023-02-15T18:54:41.820Z,7.33
2023-02-15T18:57:28.155Z,7.39
2023-02-15T19:00:19.016Z,7.15
2023-02-15T19:03:04.277Z,7.00
2023-02-15T19:05:49.665Z,6.82
2023-02-15T19:08:35.060Z,6.89
2023-02-15T19:11:22.652Z,6.83
2023-02-15T19:14:32.359Z,6.70
2023-02-15T19:17:19.962Z,6.60
2023-02-15T19:20:05.936Z,6.64
2023-02-15T19:22:53.042Z,6.66
2023-02-15T19:25:40.454Z,6.56
2023-02-15T19:28:33.313Z,6.59
2023-02-15T19:31:18.649Z,6.40
2023-02-15T19:34:15.649Z,6.22
2023-02-15T19:37:01.042Z,6.16
2023-02-15T19:39:45.950Z,6.08
2023-02-15T19:42:31.091Z,6.21
2023-02-15T19:45:18.874Z,6.06
2023-02-15T19:48:06.383Z,6.00
2023-02-15T19:50:52.234Z,6.10
2023-02-15T19:53:37.114Z,6.18
2023-02-15T19:56:23.893Z,5.94
2023-02-15T19:59:23.874Z,5.68
2023-02-15T20:02:14.402Z,5.62
2023-02-15T20:04:59.633Z,5.58
2023-02-15T20:07:48.149Z,5.42
2023-02-15T20:10:33.844Z,5.44
2023-02-15T20:13:20.608Z,5.55
2023-02-15T20:16:06.833Z,5.61
2023-02-15T20:18:51.977Z,5.69
2023-02-15T20:21:37.874Z,5.62
2023-02-15T20:24:26.920Z,5.49
2023-02-15T20:27:17.029Z,5.57
2023-02-15T20:30:02.632Z,5.45
2023-02-15T20:32:47.606Z,5.42
2023-02-15T20:35:33.100Z,5.37
2023-02-15T20:38:30.963Z,5.42
2023-02-15T20:41:19.390Z,5.33
2023-02-15T20:44:21.508Z,5.33
2023-02-15T20:47:07.039Z,5.29
2023-02-15T20:49:51.733Z,5.27
2023-02-15T20:52:37.196Z,5.21
2023-02-15T20:55:25.542Z,5.20
2023-02-15T20:58:28.923Z,5.13
2023-02-15T21:01:14.411Z,5.06
2023-02-15T21:03:59.662Z,5.09
2023-02-15T21:06:45.293Z,5.08
2023-02-15T21:09:30.696Z,5.03
2023-02-15T21:12:18.598Z,4.90
2023-02-15T21:15:25.023Z,4.92
2023-02-15T21:18:24.999Z,4.95
2023-02-15T21:21:14.623Z,4.79
2023-02-15T21:23:59.696Z,4.85
2023-02-15T21:26:46.714Z,4.80
2023-02-15T21:29:31.854Z,4.87
2023-02-15T21:32:16.794Z,5.00
2023-02-15T21:35:02.282Z,4.81
2023-02-15T21:37:50.262Z,4.78
2023-02-15T21:40:35.199Z,4.72
2023-02-15T21:43:24.430Z,4.77
2023-02-15T21:46:15.612Z,4.57
2023-02-15T21:49:01.515Z,4.56
2023-02-15T21:51:46.863Z,4.44
2023-02-15T21:54:31.790Z,4.65
2023-02-15T21:57:17.437Z,4.55
2023-02-15T22:00:02.724Z,4.36
2023-02-15T22:02:51.258Z,4.52
2023-02-15T22:05:36.088Z,4.64
2023-02-15T22:08:21.055Z,4.43
2023-02-15T22:11:15.150Z,4.28
2023-02-15T22:14:00.288Z,4.05
2023-02-15T22:16:45.204Z,4.01
2023-02-15T22:19:30.147Z,3.89
2023-02-15T22:22:16.055Z,3.81
2023-02-15T22:25:01.442Z,3.97
2023-02-15T22:27:48.092Z,4.04
2023-02-15T22:30:36.693Z,4.02
2023-02-15T22:33:25.291Z,3.93
2023-02-15T22:36:21.952Z,3.88
2023-02-15T22:39:07.184Z,3.88
2023-02-15T22:41:53.265Z,3.88
2023-02-15T22:44:38.383Z,3.96
2023-02-15T22:47:29.673Z,4.05
2023-02-15T22:50:18.991Z,4.07
2023-02-15T22:53:04.199Z,4.08
2023-02-15T22:55:50.053Z,3.98
2023-02-15T22:58:35.568Z,3.86
2023-02-15T23:01:29.526Z,3.99
2023-02-15T23:04:21.161Z,3.71
2023-02-15T23:07:12.885Z,3.76
2023-02-15T23:09:57.727Z,3.63
2023-02-15T23:12:43.000Z,3.40
2023-02-15T23:15:28.256Z,3.36
2023-02-15T23:18:21.194Z,3.32
2023-02-15T23:21:15.314Z,3.28
2023-02-15T23:24:20.244Z,3.33
2023-02-15T23:27:05.799Z,3.23
2023-02-15T23:29:50.831Z,3.23
2023-02-15T23:32:36.272Z,3.24
2023-02-15T23:35:21.246Z,3.14
2023-02-15T23:38:19.160Z,3.12
2023-02-15T23:41:04.485Z,3.07
2023-02-15T23:43:58.126Z,2.98
2023-02-15T23:46:46.579Z,3.02
2023-02-15T23:49:31.707Z,2.98
2023-02-15T23:52:16.682Z,2.89
2023-02-15T23:55:01.969Z,2.92
2023-02-15T23:57:47.751Z,3.00
